Time;durP1;ratioP1;P1;durP2;ratioP2;P2;SDS_P1;SDS_P2;PMS_P1;PMS_P2;Temp;Humidity;BMP_temperature;BMP_pressure;BME280_temperature;BME280_humidity;BME280_pressure;Samples;Min_cycle;Max_cycle;Signal;HPM_P1;HPM_P2
2021/04/10 00:02:28;;;;;;;13.27;8.23;;;;;;;5.59;50.78;101738.94;1740234;82;21696;-67
2021/04/10 00:05:01;;;;;;;16.25;8.40;;;;;;;5.58;50.86;101741.16;1739951;81;21518;-67
2021/04/10 00:07:34;;;;;;;14.90;7.58;;;;;;;5.53;51.06;101746.16;1740014;82;21153;-67
2021/04/10 00:10:10;;;;;;;16.12;8.30;;;;;;;5.53;51.32;101746.16;1711748;82;21830;-67
2021/04/10 00:12:43;;;;;;;18.05;7.80;;;;;;;5.54;51.52;101743.48;1711002;82;21149;-66
2021/04/10 00:15:17;;;;;;;15.93;7.85;;;;;;;5.56;51.58;101740.84;1739854;82;21212;-66
2021/04/10 00:17:51;;;;;;;20.02;7.83;;;;;;;5.55;51.60;101739.14;1739968;82;21492;-67
2021/04/10 00:20:24;;;;;;;18.90;9.00;;;;;;;5.54;51.69;101734.39;1740080;82;21225;-67
2021/04/10 00:22:57;;;;;;;16.52;8.83;;;;;;;5.54;51.69;101742.19;1740323;82;22148;-67
2021/04/10 00:25:30;;;;;;;14.87;8.28;;;;;;;5.55;51.72;101739.14;1740147;82;21653;-67
2021/04/10 00:28:53;;;;;;;17.07;8.40;;;;;;;5.56;51.80;101743.44;1740456;82;21759;-67
2021/04/10 00:31:28;;;;;;;16.00;7.90;;;;;;;5.55;51.85;101734.80;1738848;82;21164;-67
2021/04/10 00:34:02;;;;;;;14.78;7.65;;;;;;;5.54;51.90;101736.98;1740314;82;21260;-67
2021/04/10 00:36:36;;;;;;;17.67;8.05;;;;;;;5.54;51.92;101736.98;1738520;82;21161;-67
2021/04/10 00:39:09;;;;;;;14.30;8.00;;;;;;;5.54;51.86;101736.98;1740236;82;21800;-67
2021/04/10 00:41:42;;;;;;;16.30;8.40;;;;;;;5.50;51.92;101729.41;1727075;82;21310;-67
2021/04/10 00:44:17;;;;;;;16.45;7.62;;;;;;;5.47;51.99;101738.17;1714520;84;21767;-67
2021/04/10 00:46:52;;;;;;;16.40;7.80;;;;;;;5.44;52.15;101743.05;1778544;80;21172;-66
2021/04/10 00:49:26;;;;;;;17.15;7.50;;;;;;;5.40;52.14;101736.31;1714550;84;21830;-67
2021/04/10 00:52:00;;;;;;;14.67;7.43;;;;;;;5.40;52.25;101738.91;1778816;80;21254;-67
2021/04/10 00:54:33;;;;;;;12.63;6.87;;;;;;;5.40;52.29;101732.41;1714786;84;21294;-67
2021/04/10 00:57:07;;;;;;;12.58;7.42;;;;;;;5.37;52.34;101730.42;1778246;80;21834;-67
2021/04/10 00:59:40;;;;;;;16.00;7.20;;;;;;;5.36;52.44;101735.22;1714404;84;21309;-67
2021/04/10 01:02:14;;;;;;;16.48;7.60;;;;;;;5.33;52.46;101734.89;1778103;80;21861;-68
2021/04/10 01:04:47;;;;;;;16.25;7.53;;;;;;;5.32;52.63;101736.27;1714453;82;21290;-67
2021/04/10 01:07:20;;;;;;;15.58;7.10;;;;;;;5.28;52.64;101738.14;1778500;80;21274;-67
2021/04/10 01:09:55;;;;;;;12.70;6.75;;;;;;;5.24;52.81;101739.64;1714762;84;21137;-67
2021/04/10 01:12:48;;;;;;;13.05;6.97;;;;;;;5.22;52.85;101734.97;1748363;80;21829;-67
2021/04/10 01:15:47;;;;;;;13.93;6.90;;;;;;;5.20;52.88;101732.45;1714804;84;21263;-67
2021/04/10 01:18:28;;;;;;;10.30;6.33;;;;;;;5.14;53.03;101727.52;1781962;80;21247;-65
2021/04/10 01:21:36;;;;;;;16.60;6.97;;;;;;;5.08;53.09;101723.89;1714867;84;21144;-67
2021/04/10 01:24:23;;;;;;;12.75;6.12;;;;;;;5.05;53.23;101729.66;1779647;80;21853;-67
2021/04/10 01:27:34;;;;;;;14.33;6.75;;;;;;;5.00;53.41;101732.90;1713971;84;21779;-67
2021/04/10 01:30:16;;;;;;;17.65;7.33;;;;;;;4.96;53.61;101734.80;1778043;80;21259;-67
2021/04/10 01:33:00;;;;;;;11.70;6.40;;;;;;;4.91;53.79;101732.00;1713269;84;21291;-67
2021/04/10 01:35:41;;;;;;;;;;;;;;;4.86;53.93;101733.94;1782521;80;21279;-67
2021/04/10 01:38:18;;;;;;;10.32;6.03;;;;;;;4.81;54.15;101733.28;1778083;80;20619;-67
2021/04/10 01:40:53;;;;;;;11.43;6.62;;;;;;;4.73;54.31;101733.59;1714571;84;21275;-68
2021/04/10 01:43:27;;;;;;;12.93;6.67;;;;;;;4.68;54.50;101731.66;1777881;80;21689;-68
2021/04/10 01:46:02;;;;;;;12.78;6.10;;;;;;;4.65;54.61;101730.48;1714556;84;21775;-68
2021/04/10 01:48:35;;;;;;;13.78;6.35;;;;;;;4.57;54.76;101724.31;1749576;80;21270;-68
2021/04/10 01:51:09;;;;;;;15.90;7.00;;;;;;;4.49;54.99;101727.66;1714363;84;21263;-68
2021/04/10 01:53:42;;;;;;;11.67;6.33;;;;;;;4.42;55.27;101717.14;1778317;80;21734;-65
2021/04/10 01:56:17;;;;;;;11.70;6.72;;;;;;;4.36;55.45;101721.29;1714362;84;22089;-65
2021/04/10 01:58:58;;;;;;;9.88;5.95;;;;;;;4.28;55.60;101716.84;1777835;80;21766;-66
2021/04/10 02:01:50;;;;;;;10.25;6.10;;;;;;;4.19;55.75;101724.14;1714461;84;21149;-66
2021/04/10 02:04:23;;;;;;;;;;;;;;;4.10;56.06;101727.95;1782037;79;21914;-66
2021/04/10 02:06:57;;;;;;;13.20;6.53;;;;;;;4.04;56.46;101730.31;1779314;80;20293;-65
2021/04/10 02:09:32;;;;;;;12.70;6.17;;;;;;;3.98;56.64;101729.27;1714667;84;21683;-66
2021/04/10 02:12:11;;;;;;;11.78;6.80;;;;;;;3.90;56.79;101732.59;1775775;80;21194;-66
2021/04/10 02:14:46;;;;;;;17.52;6.33;;;;;;;3.84;56.96;101727.66;1712939;83;21196;-66
2021/04/10 02:17:20;;;;;;;12.07;6.25;;;;;;;3.79;57.17;101732.16;1777841;80;21144;-67
2021/04/10 02:19:56;;;;;;;17.27;7.42;;;;;;;3.75;57.34;101737.04;1713228;83;21299;-66
2021/04/10 02:22:33;;;;;;;16.40;7.30;;;;;;;3.70;57.55;101743.31;1779422;80;21315;-66
2021/04/10 02:25:07;;;;;;;15.08;6.40;;;;;;;3.68;57.66;101742.53;1714681;84;21841;-66
2021/04/10 02:27:40;;;;;;;12.93;6.70;;;;;;;3.63;57.78;101747.84;1779530;80;21266;-67
2021/04/10 02:30:15;;;;;;;15.85;6.75;;;;;;;3.57;57.88;101748.09;1714585;84;21795;-67
2021/04/10 02:33:11;;;;;;;21.15;7.00;;;;;;;3.50;57.98;101747.91;1779438;80;21767;-66
2021/04/10 02:35:50;;;;;;;17.35;7.58;;;;;;;3.43;58.19;101749.48;1680454;83;21188;-67
2021/04/10 02:38:25;;;;;;;18.55;6.55;;;;;;;3.38;58.37;101745.76;1777967;80;21309;-66
2021/04/10 02:41:09;;;;;;;20.55;7.87;;;;;;;3.34;58.46;101746.30;1714649;84;21248;-66
2021/04/10 02:43:46;;;;;;;15.88;7.45;;;;;;;3.31;58.65;101747.73;1774204;80;21742;-67
2021/04/10 02:46:20;;;;;;;24.18;6.95;;;;;;;3.27;58.71;101747.89;1712011;81;21718;-66
2021/04/10 02:48:58;;;;;;;;;;;;;;;3.23;58.83;101751.47;1706196;82;21826;-66
2021/04/10 02:51:44;;;;;;;15.53;6.40;;;;;;;3.20;58.93;101758.88;1704019;84;20226;-66
2021/04/10 02:54:22;;;;;;;13.65;6.10;;;;;;;3.13;59.03;101754.81;1778122;80;21809;-66
2021/04/10 02:57:12;;;;;;;13.08;6.90;;;;;;;3.09;59.22;101754.53;1714484;84;21829;-67
2021/04/10 02:59:48;;;;;;;12.50;7.00;;;;;;;3.07;59.32;101751.60;1778167;80;21274;-67
2021/04/10 03:02:22;;;;;;;11.55;6.55;;;;;;;3.05;59.43;101758.14;1714523;84;21340;-67
2021/04/10 03:04:56;;;;;;;19.82;7.40;;;;;;;3.04;59.53;101760.75;1777980;79;21366;-67
2021/04/10 03:07:29;;;;;;;13.40;6.30;;;;;;;3.04;59.64;101762.89;1714516;84;21263;-66
2021/04/10 03:10:03;;;;;;;11.43;6.15;;;;;;;3.03;59.58;101761.67;1778457;80;21287;-66
2021/04/10 03:12:37;;;;;;;8.63;4.53;;;;;;;2.98;59.60;101756.66;1714716;84;21339;-67
2021/04/10 03:15:15;;;;;;;15.48;6.85;;;;;;;2.99;59.84;101757.03;1777927;80;21802;-67
2021/04/10 03:17:49;;;;;;;12.93;6.42;;;;;;;3.00;59.88;101756.15;1693796;84;21258;-67
2021/04/10 03:20:24;;;;;;;14.13;7.05;;;;;;;3.06;59.94;101755.92;1779536;80;22077;-66
2021/04/10 03:23:00;;;;;;;13.08;6.70;;;;;;;3.18;59.87;101758.09;1714362;84;21782;-67
2021/04/10 03:25:34;;;;;;;17.05;7.30;;;;;;;3.33;59.74;101756.28;1777869;80;21678;-67
2021/04/10 03:28:08;;;;;;;13.28;6.87;;;;;;;3.55;59.66;101755.52;1714474;84;21117;-67
2021/04/10 03:30:43;;;;;;;17.87;6.58;;;;;;;3.89;59.24;101755.50;1779802;80;21278;-66
2021/04/10 03:33:18;;;;;;;14.50;7.55;;;;;;;4.32;58.63;101752.14;1714348;81;21814;-67
2021/04/10 03:35:52;;;;;;;15.18;7.15;;;;;;;4.74;57.78;101765.98;1779348;80;21239;-66
2021/04/10 03:38:25;;;;;;;10.13;4.27;;;;;;;5.16;56.80;101767.70;1714090;84;21184;-66
2021/04/10 03:41:07;;;;;;;14.83;7.28;;;;;;;5.36;55.89;101762.04;1779678;80;21243;-67
2021/04/10 03:43:41;;;;;;;12.37;6.40;;;;;;;5.52;55.45;101773.89;1714336;84;21637;-67
2021/04/10 03:46:14;;;;;;;19.25;7.33;;;;;;;5.77;54.85;101769.30;1779845;80;21653;-68
2021/04/10 03:48:49;;;;;;;12.13;6.60;;;;;;;6.18;53.92;101768.75;1714870;84;21825;-68
2021/04/10 03:51:24;;;;;;;13.30;6.78;;;;;;;6.59;52.96;101767.61;1778136;80;21286;-68
2021/04/10 03:53:59;;;;;;;15.53;6.90;;;;;;;6.99;51.88;101767.82;1735648;82;22147;-67
2021/04/10 03:56:32;;;;;;;13.32;6.78;;;;;;;7.27;51.05;101762.05;1721626;83;21695;-68
2021/04/10 03:59:07;;;;;;;11.55;6.42;;;;;;;7.48;50.11;101769.60;1702480;84;21173;-68
2021/04/10 04:01:47;;;;;;;12.78;6.58;;;;;;;7.81;49.45;101771.38;1719453;83;21172;-69
2021/04/10 04:04:20;;;;;;;12.50;6.95;;;;;;;8.41;48.46;101773.27;1704765;83;21339;-69
2021/04/10 04:06:53;;;;;;;15.05;6.53;;;;;;;9.16;47.01;101765.89;1720703;83;21774;-70
2021/04/10 04:09:28;;;;;;;11.90;6.85;;;;;;;9.91;45.47;101769.58;1734642;83;21363;-69
2021/04/10 04:12:02;;;;;;;14.40;7.58;;;;;;;10.64;43.68;101756.59;1734781;83;21680;-71
2021/04/10 04:14:37;;;;;;;11.25;6.60;;;;;;;11.31;42.07;101756.88;1732937;83;21181;-70
2021/04/10 04:17:10;;;;;;;12.15;7.42;;;;;;;11.80;40.55;101764.84;1735425;83;21268;-71
2021/04/10 04:19:44;;;;;;;13.13;6.72;;;;;;;12.19;39.67;101754.16;1735138;83;21300;-71
2021/04/10 04:22:17;;;;;;;12.63;6.97;;;;;;;12.63;38.83;101753.06;1735848;83;21153;-71
2021/04/10 04:24:50;;;;;;;10.82;6.35;;;;;;;13.15;37.88;101757.11;1735604;83;21145;-71
2021/04/10 04:27:23;;;;;;;17.37;7.25;;;;;;;13.66;36.95;101757.55;1735179;83;21303;-71
2021/04/10 04:29:56;;;;;;;13.17;7.27;;;;;;;14.09;36.08;101746.12;1735405;83;21279;-71
2021/04/10 04:32:30;;;;;;;17.70;7.00;;;;;;;14.60;35.00;101741.58;1735356;83;21233;-68
2021/04/10 04:35:03;;;;;;;;;;;;;;;14.99;34.27;101742.24;1737823;83;21316;-70
2021/04/10 04:37:36;;;;;;;9.00;5.58;;;;;;;15.36;33.70;101742.11;1734908;83;20166;-71
2021/04/10 04:40:10;;;;;;;;;;;;;;;15.69;32.93;101737.08;1719049;83;21303;-72
2021/04/10 04:42:42;;;;;;;9.38;5.72;;;;;;;16.06;32.28;101735.55;1735184;83;20234;-71
2021/04/10 04:45:16;;;;;;;11.05;6.33;;;;;;;16.32;31.73;101734.55;1735158;83;21233;-71
2021/04/10 04:47:49;;;;;;;11.48;6.37;;;;;;;16.64;31.17;101733.84;1735546;83;21292;-70
2021/04/10 04:50:22;;;;;;;14.80;7.42;;;;;;;16.93;30.67;101738.28;1735129;83;21331;-72
2021/04/10 04:52:55;;;;;;;12.25;6.33;;;;;;;17.29;30.35;101736.20;1713628;82;21295;-70
2021/04/10 04:55:28;;;;;;;;;;;;;;;17.68;29.92;101731.13;1781967;80;21262;-67
2021/04/10 04:58:01;;;;;;;14.63;6.87;;;;;;;18.08;28.95;101727.63;1779721;80;20606;-71
2021/04/10 05:00:35;;;;;;;15.03;6.87;;;;;;;18.22;28.56;101724.98;1713906;84;21283;-70
2021/04/10 05:03:08;;;;;;;12.40;6.65;;;;;;;18.48;28.29;101727.27;1779707;80;21293;-72
2021/04/10 05:05:41;;;;;;;11.30;6.55;;;;;;;18.81;28.16;101725.23;1714112;82;21232;-72
2021/04/10 05:08:15;;;;;;;13.85;6.92;;;;;;;19.23;27.57;101724.52;1779832;80;21251;-68
2021/04/10 05:10:48;;;;;;;11.55;6.85;;;;;;;19.60;26.96;101717.63;1713416;84;21283;-72
2021/04/10 05:13:21;;;;;;;14.58;6.53;;;;;;;19.92;26.47;101717.73;1779636;80;21270;-74
2021/04/10 05:15:59;;;;;;;10.18;5.00;;;;;;;20.13;25.75;101712.84;1714138;84;21786;-72
2021/04/10 05:18:32;;;;;;;9.45;4.92;;;;;;;20.24;25.73;101719.20;1779960;80;21258;-73
2021/04/10 05:21:06;;;;;;;9.63;4.20;;;;;;;20.54;25.33;101718.56;1714660;84;21240;-72
2021/04/10 05:23:40;;;;;;;10.23;4.70;;;;;;;20.94;24.74;101727.56;1779612;80;21826;-68
2021/04/10 05:26:13;;;;;;;7.70;4.10;;;;;;;21.32;24.48;101726.87;1713892;84;21335;-67
2021/04/10 05:28:46;;;;;;;12.28;4.30;;;;;;;21.64;23.86;101729.94;1779536;80;21148;-72
2021/04/10 05:31:19;;;;;;;5.67;3.90;;;;;;;21.95;23.24;101727.65;1714234;84;21343;-73
2021/04/10 05:33:52;;;;;;;7.17;3.77;;;;;;;22.12;22.81;101725.72;1779649;80;21269;-67
2021/04/10 05:36:27;;;;;;;5.28;3.70;;;;;;;22.33;22.72;101734.45;1713216;84;21361;-65
2021/04/10 05:39:00;;;;;;;6.40;3.50;;;;;;;22.62;22.50;101734.09;1779072;80;21263;-67
2021/04/10 05:41:33;;;;;;;4.65;2.75;;;;;;;23.02;22.19;101728.09;1713856;84;21302;-66
2021/04/10 05:44:07;;;;;;;7.95;2.60;;;;;;;23.33;21.15;101727.44;1779121;80;21373;-65
2021/04/10 05:46:41;;;;;;;4.12;2.58;;;;;;;23.37;20.22;101719.41;1714881;84;21200;-66
2021/04/10 05:49:15;;;;;;;2.98;2.10;;;;;;;23.32;20.50;101719.09;1780390;80;21266;-67
2021/04/10 05:51:48;;;;;;;11.57;2.40;;;;;;;23.58;20.14;101721.32;1713218;82;21279;-67
2021/04/10 05:54:21;;;;;;;5.70;1.95;;;;;;;23.81;19.88;101718.05;1672658;86;21308;-68
2021/04/10 05:56:54;;;;;;;2.35;2.00;;;;;;;23.93;19.03;101722.70;1681569;85;21176;-67
2021/04/10 05:59:27;;;;;;;3.33;2.17;;;;;;;23.75;18.95;101720.95;1672878;86;21205;-66
2021/04/10 06:02:05;;;;;;;102.55;7.08;;;;;;;23.78;18.83;101713.06;1672396;86;21349;-64
2021/04/10 06:04:39;;;;;;;5.60;2.20;;;;;;;23.84;18.77;101711.80;1682356;84;21315;-67
2021/04/10 06:07:12;;;;;;;3.80;1.55;;;;;;;23.68;18.58;101710.67;1672174;86;21192;-67
2021/04/10 06:09:45;;;;;;;4.65;1.75;;;;;;;23.44;18.82;101706.45;1675206;84;21268;-67
2021/04/10 06:12:18;;;;;;;11.63;2.50;;;;;;;23.40;18.59;101700.33;1702004;84;21158;-66
2021/04/10 06:14:51;;;;;;;4.17;1.98;;;;;;;23.33;18.69;101704.73;1702507;84;21344;-68
2021/04/10 06:17:24;;;;;;;2.87;1.67;;;;;;;23.47;19.05;101704.42;1702062;84;21201;-66
2021/04/10 06:19:58;;;;;;;18.17;2.37;;;;;;;23.53;18.36;101711.69;1702601;84;21820;-69
2021/04/10 06:22:33;;;;;;;7.72;1.90;;;;;;;23.38;18.59;101715.20;1700789;83;21292;-64
2021/04/10 06:25:07;;;;;;;21.80;2.37;;;;;;;23.53;18.41;101709.85;1702532;84;21312;-66
2021/04/10 06:27:41;;;;;;;4.67;1.95;;;;;;;23.77;18.00;101713.56;1702000;84;21292;-67
2021/04/10 06:30:15;;;;;;;;;;;;;;;23.83;18.19;101719.52;1704966;84;21281;-66
2021/04/10 06:32:47;;;;;;;4.62;1.57;;;;;;;23.98;17.82;101704.75;1701580;84;20260;-65
2021/04/10 06:35:20;;;;;;;6.42;1.52;;;;;;;24.07;17.69;101710.36;1702250;84;21158;-67
2021/04/10 06:37:54;;;;;;;6.87;1.90;;;;;;;24.13;17.20;101710.93;1701911;84;21312;-68
2021/04/10 06:40:27;;;;;;;10.40;2.33;;;;;;;24.05;17.56;101709.66;1702482;84;21261;-65
2021/04/10 06:43:03;;;;;;;12.18;2.08;;;;;;;24.11;17.52;101711.63;1701633;84;21355;-68
2021/04/10 06:45:36;;;;;;;11.40;2.00;;;;;;;23.86;17.37;101711.63;1676325;84;21260;-70
2021/04/10 06:48:13;;;;;;;1.98;1.52;;;;;;;23.83;18.08;101716.84;1701662;84;21280;-68
2021/04/10 06:50:46;;;;;;;3.17;1.70;;;;;;;24.28;17.25;101710.38;1702064;84;21827;-67
2021/04/10 06:53:20;;;;;;;4.67;1.72;;;;;;;24.54;16.77;101701.77;1705248;82;21255;-66
2021/04/10 06:55:54;;;;;;;12.20;2.10;;;;;;;24.56;16.71;101698.39;1725696;82;21184;-68
2021/04/10 06:58:39;;;;;;;4.25;1.72;;;;;;;24.46;16.82;101706.74;1720603;82;21317;-69
2021/04/10 07:01:13;;;;;;;2.55;1.67;;;;;;;24.36;17.07;101688.02;1729313;82;21173;-67
2021/04/10 07:03:46;;;;;;;17.12;3.17;;;;;;;24.69;16.71;101706.02;1715806;82;22085;-69
2021/04/10 07:06:19;;;;;;;;;;;;;;;25.08;16.43;101708.72;1806378;78;21335;-68
2021/04/10 07:08:52;;;;;;;4.35;1.70;;;;;;;25.09;16.17;101701.01;1805470;79;20818;-67
2021/04/10 07:11:25;;;;;;;;;;;;;;;24.85;16.63;101698.77;1809822;79;21174;-67
2021/04/10 07:13:58;;;;;;;9.58;2.75;;;;;;;24.79;16.63;101692.86;1806748;79;20271;-67
2021/04/10 07:16:43;;;;;;;4.42;2.50;;;;;;;24.92;16.67;101695.12;1809125;79;21343;-68
2021/04/10 07:19:16;;;;;;;3.83;2.50;;;;;;;25.10;16.25;101687.41;1808060;79;21305;-67
2021/04/10 07:22:09;;;;;;;4.80;3.40;;;;;;;25.51;16.15;101693.36;1810907;79;21181;-70
2021/04/10 07:24:50;;;;;;;8.38;4.85;;;;;;;25.70;15.91;101691.28;1810071;79;21224;-66
2021/04/10 07:27:26;;;;;;;4.90;3.98;;;;;;;25.57;15.85;101680.48;1811209;79;21165;-68
2021/04/10 07:30:03;;;;;;;26.20;4.10;;;;;;;25.45;15.80;101686.93;1809948;79;21811;-66
2021/04/10 07:32:38;;;;;;;16.37;3.67;;;;;;;25.45;15.50;101692.30;1811604;79;21773;-67
2021/04/10 07:35:14;;;;;;;6.08;3.98;;;;;;;25.35;15.78;101690.45;1811323;79;21260;-65
2021/04/10 07:37:51;;;;;;;7.08;4.17;;;;;;;25.60;15.60;101687.63;1811568;79;21272;-67
2021/04/10 07:40:27;;;;;;;4.60;3.37;;;;;;;25.66;15.58;101684.14;1814012;79;21204;-67
2021/04/10 07:43:03;;;;;;;12.85;3.52;;;;;;;25.85;15.46;101677.19;1811572;79;21153;-66
2021/04/10 07:45:37;;;;;;;4.97;3.05;;;;;;;26.05;14.99;101669.52;1811712;79;21261;-66
2021/04/10 07:48:14;;;;;;;13.30;2.42;;;;;;;25.93;14.98;101667.63;1810832;79;21289;-64
2021/04/10 07:50:46;;;;;;;12.35;2.87;;;;;;;25.82;15.09;101659.63;1811483;79;21130;-64
2021/04/10 07:53:27;;;;;;;6.10;3.08;;;;;;;25.77;15.48;101655.92;1811149;79;21154;-65
2021/04/10 07:56:01;;;;;;;3.05;1.80;;;;;;;25.86;15.39;101664.09;1809710;79;21151;-66
2021/04/10 07:58:35;;;;;;;3.50;2.20;;;;;;;25.86;15.08;101661.41;1811195;79;21236;-65
2021/04/10 08:01:10;;;;;;;11.83;2.58;;;;;;;25.83;14.91;101656.45;1811204;79;21252;-67
2021/04/10 08:03:50;;;;;;;4.95;1.50;;;;;;;25.56;15.16;101671.61;1810085;79;21130;-65
2021/04/10 08:06:23;;;;;;;10.88;2.60;;;;;;;25.66;15.21;101664.02;1810025;78;21272;-64
2021/04/10 08:08:58;;;;;;;4.35;1.72;;;;;;;26.04;14.95;101666.52;1811077;79;21764;-62
2021/04/10 08:11:34;;;;;;;6.12;1.90;;;;;;;26.38;14.30;101650.80;1811325;79;21169;-64
2021/04/10 08:14:15;;;;;;;8.60;1.67;;;;;;;26.41;14.42;101650.91;1810722;79;21272;-65
2021/04/10 08:16:51;;;;;;;4.42;1.80;;;;;;;26.38;14.36;101643.25;1810052;79;21717;-64
2021/04/10 08:19:32;;;;;;;2.58;1.50;;;;;;;26.37;14.57;101638.91;1810965;79;21487;-62
2021/04/10 08:22:06;;;;;;;3.85;2.10;;;;;;;26.28;14.14;101640.98;1811385;79;21331;-64
2021/04/10 08:24:44;;;;;;;4.28;2.08;;;;;;;26.11;14.10;101645.08;1810394;79;21291;-62
2021/04/10 08:27:17;;;;;;;2.65;1.95;;;;;;;26.03;14.62;101631.30;1811087;79;21240;-62
2021/04/10 08:29:49;;;;;;;;;;;;;;;26.38;14.48;101626.64;1813719;79;21166;-62
2021/04/10 08:32:21;;;;;;;;;;;;;;;26.48;14.42;101629.73;1780552;79;20275;-63
2021/04/10 08:34:54;;;;;;;;;;;;;;;26.30;14.38;101638.91;1808402;79;20410;-63
2021/04/10 08:37:27;;;;;;;;;;;;;;;26.19;13.91;101616.71;1808178;79;20248;-64
2021/04/10 08:39:59;;;;;;;;;;;;;;;26.11;14.20;101630.83;1808555;79;20235;-63
2021/04/10 08:42:33;;;;;;;;;;;;;;;25.96;14.27;101629.12;1809532;79;20228;-63
2021/04/10 08:45:06;;;;;;;;;;;;;;;26.04;14.46;101619.55;1808165;79;20601;-63
2021/04/10 08:47:38;;;;;;;;;;;;;;;26.01;14.34;101628.00;1809800;79;20347;-65
2021/04/10 08:50:14;;;;;;;;;;;;;;;25.85;14.49;101609.60;1810453;79;20168;-62
2021/04/10 08:52:46;;;;;;;;;;;;;;;25.87;14.30;101620.13;1814291;79;20227;-62
2021/04/10 08:55:18;;;;;;;;;;;;;;;25.52;14.38;101623.94;1812651;79;20169;-61
2021/04/10 08:57:51;;;;;;;;;;;;;;;25.07;14.86;101617.31;1813961;79;20149;-62
2021/04/10 09:00:25;;;;;;;;;;;;;;;24.71;15.22;101614.78;1813083;79;20311;-61
2021/04/10 09:02:59;;;;;;;;;;;;;;;24.59;15.13;101606.97;1813967;79;20228;-62
2021/04/10 09:05:48;;;;;;;;;;;;;;;24.24;15.47;101612.74;1813084;78;20590;-61
2021/04/10 09:08:27;;;;;;;;;;;;;;;23.86;15.64;101598.77;1798937;79;20706;-63
2021/04/10 09:11:00;;;;;;;;;;;;;;;23.64;15.90;101605.63;1808081;79;20157;-61
2021/04/10 09:13:35;;;;;;;;;;;;;;;23.42;16.11;101599.41;1812420;79;20229;-61
2021/04/10 09:16:27;;;;;;;;;;;;;;;23.34;16.07;101598.97;1812597;79;20244;-64
2021/04/10 09:19:19;;;;;;;;;;;;;;;22.99;16.49;101605.08;1806147;79;20217;-61
2021/04/10 09:21:55;;;;;;;;;;;;;;;22.63;16.51;101594.28;1811549;79;20161;-63
2021/04/10 09:24:28;;;;;;;;;;;;;;;22.37;16.69;101594.33;1814000;79;20196;-61
2021/04/10 09:27:03;;;;;;;;;;;;;;;22.11;16.98;101590.19;1812557;79;20164;-61
2021/04/10 09:30:02;;;;;;;;;;;;;;;21.78;17.43;101594.06;1814074;79;20280;-60
2021/04/10 09:32:35;;;;;;;;;;;;;;;21.57;17.38;101592.53;1814392;79;20233;-61
2021/04/10 09:35:15;;;;;;;;;;;;;;;21.47;17.62;101578.59;1814030;79;20189;-61
2021/04/10 09:37:48;;;;;;;;;;;;;;;21.22;17.86;101576.57;1814310;79;20220;-60
2021/04/10 09:40:25;;;;;;;;;;;;;;;20.92;17.96;101593.27;1812506;79;20165;-60
2021/04/10 09:43:06;;;;;;;;;;;;;;;20.61;18.17;101575.07;1814375;79;20173;-62
2021/04/10 09:45:39;;;;;;;;;;;;;;;20.50;18.51;101578.90;1812291;79;20165;-61
2021/04/10 09:48:15;;;;;;;;;;;;;;;20.43;18.42;101570.42;1813997;79;20251;-64
2021/04/10 09:50:52;;;;;;;;;;;;;;;20.32;18.62;101566.79;1813854;79;20303;-61
2021/04/10 09:53:26;;;;;;;;;;;;;;;20.15;19.27;101557.95;1810351;79;20308;-63
2021/04/10 09:56:10;;;;;;;;;;;;;;;19.89;19.61;101571.90;1813518;79;20229;-60
2021/04/10 09:58:44;;;;;;;;;;;;;;;19.53;19.61;101562.53;1813991;79;20626;-61
2021/04/10 10:01:18;;;;;;;;;;;;;;;19.27;19.72;101571.36;1811340;79;20264;-61
2021/04/10 10:03:51;;;;;;;;;;;;;;;19.03;20.05;101567.80;1814273;79;20259;-62
2021/04/10 10:06:34;;;;;;;;;;;;;;;18.82;20.42;101565.52;1812417;78;20290;-61
2021/04/10 10:09:24;;;;;;;;;;;;;;;18.64;20.54;101567.41;1812060;79;20192;-61
2021/04/10 10:11:57;;;;;;;;;;;;;;;18.53;20.61;101575.12;1813123;79;20225;-60
2021/04/10 10:14:46;;;;;;;;;;;;;;;18.44;20.73;101568.06;1773038;79;20234;-60
2021/04/10 10:17:18;;;;;;;;;;;;;;;18.37;20.62;101572.33;1772173;81;20225;-62
2021/04/10 10:19:54;;;;;;;;;;;;;;;18.26;20.52;101569.94;1753627;81;20226;-64
2021/04/10 10:22:27;;;;;;;;;;;;;;;18.17;20.70;101559.74;1766059;81;20277;-65
2021/04/10 10:25:03;;;;;;;;;;;;;;;18.14;20.86;101560.07;1772862;81;20178;-62
2021/04/10 10:27:41;;;;;;;;;;;;;;;18.03;21.14;101556.83;1771447;81;20202;-62
2021/04/10 10:30:19;;;;;;;;;;;;;;;18.02;21.32;101553.83;1772705;81;20154;-65
2021/04/10 10:32:52;;;;;;;;;;;;;;;18.03;21.16;101557.64;1768459;81;20269;-62
2021/04/10 10:35:25;;;;;;;;;;;;;;;17.91;20.88;101550.91;1765001;81;20362;-62
2021/04/10 10:38:00;;;;;;;;;;;;;;;17.73;21.21;101554.55;1735246;82;20328;-64
2021/04/10 10:40:32;;;;;;;;;;;;;;;17.66;21.28;101560.94;1736494;82;20189;-64
2021/04/10 10:43:08;;;;;;;;;;;;;;;17.62;21.67;101560.07;1734577;82;20229;-64
2021/04/10 10:45:48;;;;;;;;;;;;;;;17.49;21.96;101553.28;1736086;82;20264;-62
2021/04/10 10:48:30;;;;;;;;;;;;;;;17.34;22.20;101545.50;1740120;82;20328;-62
2021/04/10 10:51:08;;;;;;;;;;;;;;;17.20;22.12;101540.70;1736705;82;20704;-62
2021/04/10 10:53:51;;;;;;;;;;;;;;;17.19;21.92;101531.13;1738157;82;20260;-63
2021/04/10 10:56:27;;;;;;;;;;;;;;;17.24;22.15;101544.72;1739823;82;20244;-69
2021/04/10 10:59:07;;;;;;;;;;;;;;;17.16;21.46;101543.31;1735975;82;20801;-70
2021/04/10 11:01:42;;;;;;;;;;;;;;;16.99;21.81;101533.99;1737915;82;20204;-64
2021/04/10 11:04:26;;;;;;;;;;;;;;;16.83;21.65;101532.83;1740985;81;20233;-69
2021/04/10 11:06:59;;;;;;;;;;;;;;;16.62;21.83;101530.86;1739406;82;20561;-71
2021/04/10 11:09:35;;;;;;;;;;;;;;;16.52;22.70;101527.92;1738915;82;20213;-64
2021/04/10 11:12:12;;;;;;;;;;;;;;;16.52;22.56;101519.50;1738341;82;20477;-68
2021/04/10 11:14:46;;;;;;;;;;;;;;;16.51;22.61;101520.47;1766584;81;20194;-63
2021/04/10 11:17:34;;;;;;;;;;;;;;;16.56;22.61;101517.39;1778169;80;20722;-65
2021/04/10 11:20:34;;;;;;;;;;;;;;;16.57;22.27;101518.59;1777226;80;20408;-65
2021/04/10 11:23:07;;;;;;;;;;;;;;;16.48;22.61;101515.42;1780599;80;20178;-60
2021/04/10 11:25:53;;;;;;;;;;;;;;;16.48;22.45;101525.19;1779953;81;20209;-60
2021/04/10 11:28:31;;;;;;;;;;;;;;;16.49;22.41;101513.62;1781993;80;20796;-59
2021/04/10 11:31:06;;;;;;;;;;;;;;;16.49;22.65;101514.94;1782190;80;20270;-61
2021/04/10 11:33:38;;;;;;;;;;;;;;;16.53;22.77;101519.83;1780733;80;20229;-60
2021/04/10 11:36:10;;;;;;;;;;;;;;;16.59;22.85;101526.36;1782173;80;20213;-62
2021/04/10 11:39:07;;;;;;;;;;;;;;;16.58;22.82;101516.27;1781127;80;20222;-60
2021/04/10 11:41:46;;;;;;;;;;;;;;;16.57;22.53;101515.10;1782544;80;20242;-62
2021/04/10 11:44:19;;;;;;;;;;;;;;;16.53;22.56;101513.22;1782176;80;20612;-63
2021/04/10 11:46:59;;;;;;;;;;;;;;;16.59;22.53;101512.66;1782159;80;20551;-64
2021/04/10 11:49:31;;;;;;;;;;;;;;;16.68;22.78;101501.69;1782436;80;20225;-63
2021/04/10 11:52:12;;;;;;;;;;;;;;;16.68;22.74;101505.17;1782433;80;20258;-64
2021/04/10 11:54:44;;;;;;;;;;;;;;;16.69;22.61;101498.08;1782285;80;20246;-64
2021/04/10 11:57:30;;;;;;;;;;;;;;;16.72;22.59;101507.86;1781746;80;20638;-63
2021/04/10 12:00:06;;;;;;;;;;;;;;;16.68;22.42;101507.82;1785108;80;20241;-63
2021/04/10 12:02:45;;;;;;;;;;;;;;;16.57;22.25;101505.84;1782270;80;20166;-66
2021/04/10 12:05:29;;;;;;;;;;;;;;;16.51;22.39;101497.13;1781506;79;20170;-65
2021/04/10 12:08:15;;;;;;;;;;;;;;;16.53;22.76;101501.80;1781314;80;20240;-67
2021/04/10 12:10:55;;;;;;;;;;;;;;;16.56;22.97;101493.59;1782545;80;20233;-65
2021/04/10 12:13:31;;;;;;;;;;;;;;;16.53;22.89;101492.07;1780421;81;20198;-69
2021/04/10 12:16:03;;;;;;;;;;;;;;;16.47;23.13;101482.54;1780606;81;20162;-66
2021/04/10 12:18:35;;;;;;;;;;;;;;;16.42;23.23;101484.30;1780977;80;20254;-67
2021/04/10 12:21:07;;;;;;;;;;;;;;;16.39;23.21;101487.70;1782408;80;20285;-70
2021/04/10 12:23:39;;;;;;;;;;;;;;;16.33;23.20;101496.22;1781730;80;20230;-70
2021/04/10 12:26:11;;;;;;;;;;;;;;;16.29;23.13;101482.44;1781963;80;20614;-68
2021/04/10 12:28:43;;;;;;;;;;;;;;;16.26;23.33;101480.59;1779500;79;20282;-67
2021/04/10 12:31:16;;;;;;;;;;;;;;;16.24;22.93;101474.11;1777023;80;20623;-67
2021/04/10 12:33:48;;;;;;;;;;;;;;;16.18;22.71;101481.30;1776322;80;20344;-68